createdAt,value
2019-05-13T00:01:19.951Z,7.50
2019-05-13T00:06:23.850Z,7.40
2019-05-13T00:11:25.633Z,7.30
2019-05-13T00:16:27.154Z,7.30
2019-05-13T00:21:28.450Z,7.20
2019-05-13T00:26:33.762Z,7.10
2019-05-13T00:31:36.882Z,7.00
2019-05-13T00:36:38.667Z,7.00
2019-05-13T00:41:40.182Z,6.80
2019-05-13T00:46:45.008Z,6.80
2019-05-13T00:51:46.296Z,6.70
2019-05-13T00:56:47.559Z,6.70
2019-05-13T01:01:48.893Z,6.60
2019-05-13T01:06:50.876Z,6.60
2019-05-13T01:11:53.739Z,6.50
2019-05-13T01:16:56.731Z,6.50
2019-05-13T01:21:57.995Z,6.40
2019-05-13T01:26:59.508Z,6.40
2019-05-13T01:32:01.228Z,6.30
2019-05-13T01:37:04.430Z,6.20
2019-05-13T01:42:06.169Z,6.20
2019-05-13T01:47:07.541Z,6.10
2019-05-13T01:52:13.672Z,6.10
2019-05-13T01:57:16.055Z,6.10
2019-05-13T02:02:18.272Z,6.10
2019-05-13T02:07:19.952Z,6.00
2019-05-13T02:12:21.254Z,6.00
2019-05-13T02:17:23.429Z,5.90
2019-05-13T02:22:25.222Z,5.90
2019-05-13T02:27:26.607Z,5.90
2019-05-13T02:32:27.959Z,5.80
2019-05-13T02:37:31.000Z,5.80
2019-05-13T02:42:32.964Z,5.80
2019-05-13T02:47:34.637Z,5.70
2019-05-13T02:52:36.025Z,5.60
2019-05-13T02:57:37.833Z,5.50
2019-05-13T03:02:39.187Z,5.50
2019-05-13T03:07:42.554Z,5.40
2019-05-13T03:12:43.953Z,5.30
2019-05-13T03:17:53.171Z,5.30
2019-05-13T03:22:54.664Z,5.30
2019-05-13T03:27:55.982Z,5.20
2019-05-13T03:33:02.049Z,5.10
2019-05-13T03:38:03.275Z,5.10
2019-05-13T03:43:07.640Z,5.10
2019-05-13T03:48:12.224Z,5.00
2019-05-13T03:53:15.577Z,5.00
2019-05-13T03:58:17.355Z,5.00
2019-05-13T04:03:22.830Z,5.00
2019-05-13T04:08:24.391Z,4.90
2019-05-13T04:13:26.303Z,4.90
2019-05-13T04:18:27.872Z,4.90
2019-05-13T04:23:32.039Z,4.90
2019-05-13T04:28:34.360Z,4.90
2019-05-13T04:33:37.146Z,4.90
2019-05-13T04:38:38.536Z,4.90
2019-05-13T04:43:43.608Z,5.00
2019-05-13T04:48:45.753Z,5.00
2019-05-13T04:53:47.243Z,5.00
2019-05-13T04:58:48.527Z,5.10
2019-05-13T05:04:11.376Z,5.20
2019-05-13T05:10:13.234Z,5.20
2019-05-13T05:15:35.552Z,5.30
2019-05-13T05:20:55.702Z,5.40
2019-05-13T05:26:26.397Z,5.50
2019-05-13T05:32:12.238Z,5.60
2019-05-13T05:37:52.494Z,5.70
2019-05-13T05:42:58.017Z,5.80
2019-05-13T05:48:04.165Z,6.00
2019-05-13T05:53:06.420Z,6.20
2019-05-13T05:58:08.704Z,6.40
2019-05-13T06:03:13.813Z,6.60
2019-05-13T06:08:17.792Z,6.90
2019-05-13T06:13:21.480Z,7.10
2019-05-13T06:18:23.912Z,7.40
2019-05-13T06:23:25.886Z,7.70
2019-05-13T06:28:27.151Z,7.90
2019-05-13T06:33:28.605Z,8.30
2019-05-13T06:38:31.619Z,8.60
2019-05-13T06:43:33.060Z,9.00
2019-05-13T06:48:34.309Z,9.30
2019-05-13T06:53:35.594Z,9.60
2019-05-13T06:58:38.397Z,10.00
2019-05-13T07:03:42.019Z,10.20
2019-05-13T07:08:47.035Z,10.50
2019-05-13T07:13:51.665Z,10.80
2019-05-13T07:18:59.517Z,11.00
2019-05-13T07:24:02.250Z,11.30
2019-05-13T07:29:07.928Z,11.50
2019-05-13T07:34:12.139Z,11.80
2019-05-13T07:39:15.378Z,12.10
2019-05-13T07:44:17.508Z,12.30
2019-05-13T07:49:18.894Z,12.50
2019-05-13T07:54:22.634Z,12.80
2019-05-13T07:59:23.985Z,13.00
2019-05-13T08:04:26.716Z,13.20
2019-05-13T08:09:32.182Z,13.50
2019-05-13T08:14:34.456Z,13.50
2019-05-13T08:19:41.239Z,13.60
2019-05-13T08:24:42.656Z,13.80
2019-05-13T08:29:45.750Z,14.00
2019-05-13T08:34:52.559Z,14.20
2019-05-13T08:39:52.347Z,14.30
2019-05-13T08:45:01.877Z,14.60
2019-05-13T08:50:11.921Z,14.70
2019-05-13T08:55:16.158Z,14.70
2019-05-13T09:00:42.687Z,14.80
2019-05-13T09:05:46.156Z,14.90
2019-05-13T09:11:11.968Z,14.90
2019-05-13T09:16:13.343Z,14.70
2019-05-13T09:21:15.391Z,15.00
2019-05-13T09:26:16.700Z,15.10
2019-05-13T09:31:22.102Z,15.30
2019-05-13T09:36:25.250Z,15.40
2019-05-13T09:41:27.314Z,15.50
2019-05-13T09:46:32.623Z,15.40
2019-05-13T09:51:33.888Z,15.20
2019-05-13T09:56:35.670Z,15.00
2019-05-13T10:01:36.923Z,15.10
2019-05-13T10:06:41.973Z,15.10
2019-05-13T10:11:41.671Z,15.20
2019-05-13T10:16:42.938Z,15.10
2019-05-13T10:21:46.365Z,15.00
2019-05-13T10:26:48.120Z,15.10
2019-05-13T10:31:54.907Z,15.00
2019-05-13T10:36:57.501Z,14.90
2019-05-13T10:42:03.593Z,14.70
2019-05-13T10:47:06.352Z,14.50
2019-05-13T10:52:12.201Z,14.40
2019-05-13T10:57:16.082Z,14.40
2019-05-13T11:02:17.732Z,14.40
2019-05-13T11:07:22.608Z,14.40
2019-05-13T11:12:33.433Z,14.40
2019-05-13T11:17:34.959Z,14.30
2019-05-13T11:22:37.775Z,14.30
2019-05-13T11:27:41.926Z,14.40
2019-05-13T11:32:45.232Z,14.60
2019-05-13T11:37:46.632Z,14.60
2019-05-13T11:42:47.949Z,14.70
2019-05-13T11:47:51.971Z,14.70
2019-05-13T11:52:57.172Z,14.70
2019-05-13T11:57:58.874Z,14.70
2019-05-13T12:03:04.256Z,14.80
2019-05-13T12:08:03.773Z,14.80
2019-05-13T12:13:05.185Z,14.80
2019-05-13T12:18:11.655Z,14.90
2019-05-13T12:23:15.133Z,15.00
2019-05-13T12:28:16.931Z,15.10
2019-05-13T12:33:22.708Z,15.10
2019-05-13T12:38:23.285Z,15.20
2019-05-13T12:43:24.562Z,15.30
2019-05-13T12:48:26.052Z,15.40
2019-05-13T12:53:27.334Z,15.60
2019-05-13T12:58:28.586Z,15.60
2019-05-13T13:03:32.133Z,15.60
2019-05-13T13:08:43.046Z,15.60
2019-05-13T13:18:43.479Z,15.60
2019-05-13T13:23:46.745Z,15.50
2019-05-13T13:28:48.160Z,15.50
2019-05-13T13:33:55.150Z,15.40
2019-05-13T13:38:57.261Z,15.40
2019-05-13T13:44:04.654Z,15.40
2019-05-13T13:49:02.186Z,15.30
2019-05-13T13:54:03.694Z,15.40
2019-05-13T13:59:05.404Z,15.40
2019-05-13T14:04:06.713Z,15.40
2019-05-13T14:09:08.165Z,15.40
2019-05-13T14:14:09.601Z,15.30
2019-05-13T14:19:10.882Z,15.40
2019-05-13T14:24:22.828Z,15.40
2019-05-13T14:29:37.474Z,15.40
2019-05-13T14:34:27.351Z,15.30
2019-05-13T14:39:28.748Z,15.30
2019-05-13T14:44:32.455Z,15.30
2019-05-13T14:49:33.534Z,15.30
2019-05-13T14:54:34.928Z,15.30
2019-05-13T14:59:36.242Z,15.30
2019-05-13T15:04:38.347Z,15.30
2019-05-13T15:09:41.955Z,15.30
2019-05-13T15:14:43.099Z,15.40
2019-05-13T15:19:44.703Z,15.40
2019-05-13T15:24:46.640Z,15.40
2019-05-13T15:29:51.596Z,15.30
2019-05-13T15:34:52.840Z,15.40
2019-05-13T15:39:54.950Z,15.40
2019-05-13T15:44:56.302Z,15.50
2019-05-13T15:50:02.423Z,15.50
2019-05-13T15:55:05.320Z,15.40
2019-05-13T16:00:09.534Z,15.40
2019-05-13T16:05:12.027Z,15.40
2019-05-13T16:10:16.347Z,15.40
2019-05-13T16:15:17.891Z,15.40
2019-05-13T16:20:21.405Z,15.40
2019-05-13T16:25:23.028Z,15.40
2019-05-13T16:30:24.845Z,15.30
2019-05-13T16:35:26.145Z,15.30
2019-05-13T16:40:27.483Z,15.30
2019-05-13T16:45:31.324Z,15.30
2019-05-13T16:50:32.134Z,15.20
2019-05-13T16:55:33.416Z,15.20
2019-05-13T17:00:35.086Z,15.20
2019-05-13T17:05:36.441Z,15.10
2019-05-13T17:10:37.782Z,15.10
2019-05-13T17:15:41.538Z,15.00
2019-05-13T17:20:42.835Z,15.00
2019-05-13T17:25:44.645Z,14.90
2019-05-13T17:30:46.133Z,14.90
2019-05-13T17:35:47.690Z,14.80
2019-05-13T17:40:50.051Z,14.80
2019-05-13T17:45:52.501Z,14.70
2019-05-13T17:50:55.930Z,14.70
2019-05-13T17:55:57.351Z,14.70
2019-05-13T18:00:58.647Z,14.60
2019-05-13T18:06:02.046Z,14.60
2019-05-13T18:11:03.595Z,14.50
2019-05-13T18:16:05.098Z,14.40
2019-05-13T18:21:06.394Z,14.30
2019-05-13T18:26:07.846Z,14.20
2019-05-13T18:31:09.234Z,14.10
2019-05-13T18:36:11.993Z,14.10
2019-05-13T18:41:13.777Z,14.00
2019-05-13T18:46:15.037Z,13.90
2019-05-13T18:51:21.136Z,13.80
2019-05-13T18:56:22.717Z,13.60
2019-05-13T19:01:24.226Z,13.50
2019-05-13T19:06:25.495Z,13.40
2019-05-13T19:11:51.417Z,13.30
2019-05-13T19:16:52.562Z,13.20
2019-05-13T19:21:55.026Z,13.10
2019-05-13T19:26:58.584Z,12.90
2019-05-13T19:32:01.769Z,12.80
2019-05-13T19:37:03.777Z,12.70
2019-05-13T19:42:05.145Z,12.50
2019-05-13T19:47:06.413Z,12.40
2019-05-13T19:52:07.912Z,12.30
2019-05-13T19:57:11.767Z,12.20
2019-05-13T20:02:12.586Z,12.10
2019-05-13T20:07:17.690Z,12.00
2019-05-13T20:12:21.222Z,11.80
2019-05-13T20:17:22.793Z,11.70
2019-05-13T20:22:25.689Z,11.70
2019-05-13T20:27:26.971Z,11.50
2019-05-13T20:32:28.286Z,11.40
2019-05-13T20:37:32.049Z,11.30
2019-05-13T20:42:33.275Z,11.20
2019-05-13T20:47:34.675Z,11.10
2019-05-13T20:52:36.080Z,11.00
2019-05-13T20:57:38.667Z,10.90
2019-05-13T21:02:42.955Z,10.80
2019-05-13T21:07:44.264Z,10.70
2019-05-13T21:12:45.921Z,10.60
2019-05-13T21:17:48.621Z,10.60
2019-05-13T21:22:52.049Z,10.50
2019-05-13T21:27:53.511Z,10.40
2019-05-13T21:32:54.775Z,10.30
2019-05-13T21:37:56.045Z,10.20
2019-05-13T21:42:59.410Z,10.20
2019-05-13T21:48:03.040Z,10.10
2019-05-13T21:53:04.421Z,10.00
2019-05-13T21:58:05.743Z,9.90
2019-05-13T22:03:11.438Z,9.80
2019-05-13T22:08:12.537Z,9.80
2019-05-13T22:13:14.003Z,9.70
2019-05-13T22:18:15.310Z,9.60
2019-05-13T22:23:18.471Z,9.60
2019-05-13T22:28:21.948Z,9.50
2019-05-13T22:33:22.953Z,9.40
2019-05-13T22:38:24.262Z,9.40
2019-05-13T22:43:28.544Z,9.30
2019-05-13T22:48:32.698Z,9.20
2019-05-13T22:53:36.797Z,9.20
2019-05-13T22:58:38.380Z,9.10
2019-05-13T23:03:41.215Z,9.10
2019-05-13T23:08:42.778Z,9.00
2019-05-13T23:13:44.378Z,8.90
2019-05-13T23:18:45.764Z,8.80
2019-05-13T23:23:47.175Z,8.80
2019-05-13T23:28:48.772Z,8.70
2019-05-13T23:33:51.098Z,8.60
2019-05-13T23:38:52.389Z,8.60
2019-05-13T23:43:53.652Z,8.50
2019-05-13T23:48:55.355Z,8.50
2019-05-13T23:53:56.611Z,8.40
2019-05-13T23:58:58.161Z,8.40
